sensor_id;sensor_type;location;lat;lon;timestamp;P1;durP1;ratioP1;P2;durP2;ratioP2
25717;SDS011;13574;52.040;5.692;2022-09-09T00:03:53;7.53;;;3.22;;
25717;SDS011;13574;52.040;5.692;2022-09-09T00:06:37;6.38;;;3.90;;
25717;SDS011;13574;52.040;5.692;2022-09-09T00:09:19;7.43;;;3.95;;
25717;SDS011;13574;52.040;5.692;2022-09-09T00:17:12;7.10;;;4.70;;
25717;SDS011;13574;52.040;5.692;2022-09-09T00:19:56;8.32;;;5.97;;
25717;SDS011;13574;52.040;5.692;2022-09-09T00:22:30;8.15;;;5.63;;
25717;SDS011;13574;52.040;5.692;2022-09-09T00:25:02;8.45;;;5.97;;
25717;SDS011;13574;52.040;5.692;2022-09-09T00:27:46;9.23;;;5.50;;
25717;SDS011;13574;52.040;5.692;2022-09-09T00:32:39;6.85;;;5.28;;
25717;SDS011;13574;52.040;5.692;2022-09-09T00:38:01;9.15;;;5.38;;
25717;SDS011;13574;52.040;5.692;2022-09-09T00:40:37;9.85;;;5.45;;
25717;SDS011;13574;52.040;5.692;2022-09-09T00:43:33;8.82;;;5.55;;
25717;SDS011;13574;52.040;5.692;2022-09-09T00:51:52;9.60;;;5.63;;
25717;SDS011;13574;52.040;5.692;2022-09-09T01:10:59;8.95;;;5.63;;
25717;SDS011;13574;52.040;5.692;2022-09-09T01:13:31;7.60;;;5.38;;
25717;SDS011;13574;52.040;5.692;2022-09-09T01:16:00;9.73;;;5.72;;
25717;SDS011;13574;52.040;5.692;2022-09-09T01:18:29;9.73;;;5.25;;
25717;SDS011;13574;52.040;5.692;2022-09-09T01:21:34;10.05;;;5.35;;
25717;SDS011;13574;52.040;5.692;2022-09-09T01:27:13;6.03;;;4.85;;
25717;SDS011;13574;52.040;5.692;2022-09-09T01:29:42;8.00;;;5.07;;
25717;SDS011;13574;52.040;5.692;2022-09-09T01:35:04;6.47;;;4.38;;
25717;SDS011;13574;52.040;5.692;2022-09-09T01:37:32;6.47;;;4.68;;
25717;SDS011;13574;52.040;5.692;2022-09-09T01:40:00;6.95;;;4.57;;
25717;SDS011;13574;52.040;5.692;2022-09-09T01:42:26;7.15;;;5.03;;
25717;SDS011;13574;52.040;5.692;2022-09-09T01:44:52;7.22;;;4.53;;
25717;SDS011;13574;52.040;5.692;2022-09-09T01:47:19;5.93;;;4.82;;
25717;SDS011;13574;52.040;5.692;2022-09-09T01:49:45;6.28;;;4.38;;
25717;SDS011;13574;52.040;5.692;2022-09-09T01:52:10;6.93;;;4.90;;
25717;SDS011;13574;52.040;5.692;2022-09-09T01:54:36;8.80;;;4.60;;
25717;SDS011;13574;52.040;5.692;2022-09-09T01:57:15;7.43;;;5.07;;
25717;SDS011;13574;52.040;5.692;2022-09-09T02:02:42;8.27;;;4.90;;
25717;SDS011;13574;52.040;5.692;2022-09-09T02:10:42;7.90;;;5.00;;
25717;SDS011;13574;52.040;5.692;2022-09-09T02:13:29;7.38;;;4.30;;
25717;SDS011;13574;52.040;5.692;2022-09-09T02:16:00;7.22;;;4.93;;
25717;SDS011;13574;52.040;5.692;2022-09-09T02:18:54;7.03;;;5.10;;
25717;SDS011;13574;52.040;5.692;2022-09-09T02:21:22;8.90;;;5.15;;
25717;SDS011;13574;52.040;5.692;2022-09-09T02:23:49;6.13;;;4.40;;
25717;SDS011;13574;52.040;5.692;2022-09-09T02:26:18;7.35;;;5.05;;
25717;SDS011;13574;52.040;5.692;2022-09-09T02:28:49;7.32;;;4.57;;
25717;SDS011;13574;52.040;5.692;2022-09-09T02:31:17;6.60;;;4.75;;
25717;SDS011;13574;52.040;5.692;2022-09-09T02:33:46;7.65;;;4.68;;
25717;SDS011;13574;52.040;5.692;2022-09-09T02:36:17;7.20;;;4.43;;
25717;SDS011;13574;52.040;5.692;2022-09-09T02:38:46;9.38;;;4.60;;
25717;SDS011;13574;52.040;5.692;2022-09-09T02:41:22;6.03;;;4.43;;
25717;SDS011;13574;52.040;5.692;2022-09-09T02:43:53;6.30;;;4.78;;
25717;SDS011;13574;52.040;5.692;2022-09-09T02:51:46;6.85;;;4.78;;
25717;SDS011;13574;52.040;5.692;2022-09-09T02:54:25;7.97;;;5.38;;
25717;SDS011;13574;52.040;5.692;2022-09-09T02:56:55;5.78;;;4.07;;
25717;SDS011;13574;52.040;5.692;2022-09-09T02:59:26;8.80;;;4.18;;
25717;SDS011;13574;52.040;5.692;2022-09-09T03:01:52;6.47;;;4.72;;
25717;SDS011;13574;52.040;5.692;2022-09-09T03:04:18;8.07;;;5.18;;
25717;SDS011;13574;52.040;5.692;2022-09-09T03:06:44;8.02;;;4.55;;
25717;SDS011;13574;52.040;5.692;2022-09-09T03:09:09;7.38;;;4.57;;
25717;SDS011;13574;52.040;5.692;2022-09-09T03:11:40;6.68;;;4.60;;
25717;SDS011;13574;52.040;5.692;2022-09-09T03:14:08;5.93;;;4.63;;
25717;SDS011;13574;52.040;5.692;2022-09-09T03:16:36;8.50;;;4.45;;
25717;SDS011;13574;52.040;5.692;2022-09-09T03:19:02;6.78;;;4.75;;
25717;SDS011;13574;52.040;5.692;2022-09-09T03:21:29;7.43;;;4.97;;
25717;SDS011;13574;52.040;5.692;2022-09-09T03:23:54;6.95;;;5.20;;
25717;SDS011;13574;52.040;5.692;2022-09-09T03:26:20;7.43;;;4.60;;
25717;SDS011;13574;52.040;5.692;2022-09-09T03:28:46;6.55;;;4.95;;
25717;SDS011;13574;52.040;5.692;2022-09-09T03:31:12;5.90;;;4.50;;
25717;SDS011;13574;52.040;5.692;2022-09-09T03:33:37;8.80;;;4.82;;
25717;SDS011;13574;52.040;5.692;2022-09-09T03:36:04;8.52;;;4.65;;
25717;SDS011;13574;52.040;5.692;2022-09-09T03:38:30;9.55;;;5.10;;
25717;SDS011;13574;52.040;5.692;2022-09-09T03:40:57;8.77;;;5.30;;
25717;SDS011;13574;52.040;5.692;2022-09-09T03:43:24;7.18;;;5.03;;
25717;SDS011;13574;52.040;5.692;2022-09-09T03:45:51;7.72;;;4.40;;
25717;SDS011;13574;52.040;5.692;2022-09-09T03:48:18;9.52;;;5.72;;
25717;SDS011;13574;52.040;5.692;2022-09-09T03:50:47;7.80;;;5.28;;
25717;SDS011;13574;52.040;5.692;2022-09-09T03:53:14;8.68;;;5.80;;
25717;SDS011;13574;52.040;5.692;2022-09-09T03:55:44;10.13;;;5.53;;
25717;SDS011;13574;52.040;5.692;2022-09-09T03:58:14;7.93;;;5.57;;
25717;SDS011;13574;52.040;5.692;2022-09-09T04:00:41;6.00;;;4.53;;
25717;SDS011;13574;52.040;5.692;2022-09-09T04:03:08;8.52;;;4.97;;
25717;SDS011;13574;52.040;5.692;2022-09-09T04:05:34;8.52;;;5.28;;
25717;SDS011;13574;52.040;5.692;2022-09-09T04:08:06;11.10;;;4.88;;
25717;SDS011;13574;52.040;5.692;2022-09-09T04:10:33;9.90;;;5.18;;
25717;SDS011;13574;52.040;5.692;2022-09-09T04:13:02;8.07;;;4.88;;
25717;SDS011;13574;52.040;5.692;2022-09-09T04:15:32;10.75;;;5.53;;
25717;SDS011;13574;52.040;5.692;2022-09-09T04:17:59;8.65;;;5.18;;
25717;SDS011;13574;52.040;5.692;2022-09-09T04:20:25;11.35;;;5.38;;
25717;SDS011;13574;52.040;5.692;2022-09-09T04:22:51;12.18;;;5.78;;
25717;SDS011;13574;52.040;5.692;2022-09-09T04:25:17;8.55;;;5.53;;
25717;SDS011;13574;52.040;5.692;2022-09-09T04:27:42;7.95;;;5.05;;
25717;SDS011;13574;52.040;5.692;2022-09-09T04:30:09;10.55;;;5.10;;
25717;SDS011;13574;52.040;5.692;2022-09-09T04:32:35;9.48;;;6.07;;
25717;SDS011;13574;52.040;5.692;2022-09-09T04:35:02;9.00;;;5.20;;
25717;SDS011;13574;52.040;5.692;2022-09-09T04:37:29;7.32;;;5.18;;
25717;SDS011;13574;52.040;5.692;2022-09-09T04:39:55;9.05;;;5.18;;
25717;SDS011;13574;52.040;5.692;2022-09-09T04:42:21;8.70;;;5.43;;
25717;SDS011;13574;52.040;5.692;2022-09-09T04:44:46;10.48;;;5.30;;
25717;SDS011;13574;52.040;5.692;2022-09-09T04:47:12;10.10;;;5.53;;
25717;SDS011;13574;52.040;5.692;2022-09-09T04:49:39;9.57;;;5.50;;
25717;SDS011;13574;52.040;5.692;2022-09-09T04:52:06;9.00;;;5.50;;
25717;SDS011;13574;52.040;5.692;2022-09-09T04:54:31;9.20;;;5.43;;
25717;SDS011;13574;52.040;5.692;2022-09-09T04:57:00;8.93;;;5.63;;
25717;SDS011;13574;52.040;5.692;2022-09-09T04:59:25;8.23;;;5.75;;
25717;SDS011;13574;52.040;5.692;2022-09-09T05:01:51;8.73;;;5.32;;
25717;SDS011;13574;52.040;5.692;2022-09-09T05:04:19;11.18;;;5.45;;
25717;SDS011;13574;52.040;5.692;2022-09-09T05:06:44;7.00;;;5.28;;
25717;SDS011;13574;52.040;5.692;2022-09-09T05:09:13;8.73;;;5.30;;
25717;SDS011;13574;52.040;5.692;2022-09-09T05:11:39;12.48;;;5.10;;
25717;SDS011;13574;52.040;5.692;2022-09-09T05:14:04;10.50;;;4.88;;
25717;SDS011;13574;52.040;5.692;2022-09-09T05:16:30;9.57;;;4.55;;
25717;SDS011;13574;52.040;5.692;2022-09-09T05:18:56;8.75;;;4.93;;
25717;SDS011;13574;52.040;5.692;2022-09-09T05:21:23;8.65;;;4.85;;
25717;SDS011;13574;52.040;5.692;2022-09-09T05:23:51;7.65;;;4.20;;
25717;SDS011;13574;52.040;5.692;2022-09-09T05:26:18;10.02;;;4.65;;
25717;SDS011;13574;52.040;5.692;2022-09-09T05:28:47;9.93;;;4.65;;
25717;SDS011;13574;52.040;5.692;2022-09-09T05:31:14;6.93;;;3.78;;
25717;SDS011;13574;52.040;5.692;2022-09-09T05:33:41;5.75;;;3.70;;
25717;SDS011;13574;52.040;5.692;2022-09-09T05:36:14;7.90;;;3.97;;
25717;SDS011;13574;52.040;5.692;2022-09-09T05:38:44;8.25;;;4.22;;
25717;SDS011;13574;52.040;5.692;2022-09-09T05:41:10;7.05;;;3.95;;
25717;SDS011;13574;52.040;5.692;2022-09-09T05:43:37;8.25;;;4.30;;
25717;SDS011;13574;52.040;5.692;2022-09-09T05:46:04;8.65;;;3.90;;
25717;SDS011;13574;52.040;5.692;2022-09-09T05:48:33;8.43;;;3.78;;
25717;SDS011;13574;52.040;5.692;2022-09-09T05:54:56;11.75;;;4.30;;
25717;SDS011;13574;52.040;5.692;2022-09-09T05:57:22;5.95;;;4.15;;
25717;SDS011;13574;52.040;5.692;2022-09-09T05:59:48;7.95;;;4.13;;
25717;SDS011;13574;52.040;5.692;2022-09-09T06:02:14;11.55;;;4.30;;
25717;SDS011;13574;52.040;5.692;2022-09-09T06:04:40;9.73;;;4.07;;
25717;SDS011;13574;52.040;5.692;2022-09-09T06:07:06;10.77;;;4.03;;
25717;SDS011;13574;52.040;5.692;2022-09-09T06:09:32;6.80;;;3.30;;
25717;SDS011;13574;52.040;5.692;2022-09-09T06:11:58;6.50;;;3.63;;
25717;SDS011;13574;52.040;5.692;2022-09-09T06:14:23;7.18;;;3.55;;
25717;SDS011;13574;52.040;5.692;2022-09-09T06:16:50;8.68;;;4.22;;
25717;SDS011;13574;52.040;5.692;2022-09-09T06:19:19;7.10;;;3.42;;
25717;SDS011;13574;52.040;5.692;2022-09-09T06:21:45;8.23;;;3.70;;
25717;SDS011;13574;52.040;5.692;2022-09-09T06:24:12;9.95;;;3.63;;
25717;SDS011;13574;52.040;5.692;2022-09-09T06:26:42;8.15;;;3.13;;
25717;SDS011;13574;52.040;5.692;2022-09-09T06:29:13;10.32;;;4.03;;
25717;SDS011;13574;52.040;5.692;2022-09-09T06:31:49;9.50;;;4.18;;
25717;SDS011;13574;52.040;5.692;2022-09-09T06:34:15;9.25;;;3.67;;
25717;SDS011;13574;52.040;5.692;2022-09-09T06:36:44;7.35;;;3.70;;
25717;SDS011;13574;52.040;5.692;2022-09-09T06:39:10;8.88;;;3.33;;
25717;SDS011;13574;52.040;5.692;2022-09-09T06:45:08;8.27;;;3.45;;
25717;SDS011;13574;52.040;5.692;2022-09-09T06:53:43;8.45;;;3.50;;
25717;SDS011;13574;52.040;5.692;2022-09-09T06:56:25;11.52;;;3.83;;
25717;SDS011;13574;52.040;5.692;2022-09-09T06:59:00;10.32;;;4.25;;
25717;SDS011;13574;52.040;5.692;2022-09-09T07:01:33;11.25;;;3.70;;
25717;SDS011;13574;52.040;5.692;2022-09-09T07:07:23;11.52;;;3.47;;
25717;SDS011;13574;52.040;5.692;2022-09-09T07:10:12;5.43;;;3.10;;
25717;SDS011;13574;52.040;5.692;2022-09-09T07:15:53;11.57;;;3.58;;
25717;SDS011;13574;52.040;5.692;2022-09-09T07:18:43;7.47;;;3.20;;
25717;SDS011;13574;52.040;5.692;2022-09-09T07:21:15;14.18;;;3.55;;
25717;SDS011;13574;52.040;5.692;2022-09-09T07:23:43;15.55;;;3.10;;
25717;SDS011;13574;52.040;5.692;2022-09-09T07:26:19;14.48;;;3.78;;
25717;SDS011;13574;52.040;5.692;2022-09-09T07:28:55;11.95;;;3.33;;
25717;SDS011;13574;52.040;5.692;2022-09-09T07:31:35;9.80;;;3.90;;
25717;SDS011;13574;52.040;5.692;2022-09-09T07:34:51;9.18;;;3.28;;
25717;SDS011;13574;52.040;5.692;2022-09-09T07:40:19;12.00;;;3.22;;
25717;SDS011;13574;52.040;5.692;2022-09-09T07:43:11;12.43;;;3.33;;
25717;SDS011;13574;52.040;5.692;2022-09-09T07:45:38;8.73;;;3.15;;
25717;SDS011;13574;52.040;5.692;2022-09-09T07:48:17;12.90;;;3.70;;
25717;SDS011;13574;52.040;5.692;2022-09-09T08:08:23;8.65;;;3.20;;
25717;SDS011;13574;52.040;5.692;2022-09-09T08:11:08;6.03;;;3.03;;
25717;SDS011;13574;52.040;5.692;2022-09-09T08:13:44;9.25;;;3.35;;
25717;SDS011;13574;52.040;5.692;2022-09-09T08:16:34;8.40;;;3.28;;
25717;SDS011;13574;52.040;5.692;2022-09-09T08:19:26;10.27;;;2.92;;
25717;SDS011;13574;52.040;5.692;2022-09-09T08:22:16;8.23;;;3.17;;
25717;SDS011;13574;52.040;5.692;2022-09-09T08:36:18;10.75;;;3.60;;
25717;SDS011;13574;52.040;5.692;2022-09-09T08:39:15;8.00;;;3.63;;
25717;SDS011;13574;52.040;5.692;2022-09-09T09:19:35;7.85;;;2.70;;
25717;SDS011;13574;52.040;5.692;2022-09-09T09:26:14;10.55;;;2.42;;
25717;SDS011;13574;52.040;5.692;2022-09-09T09:46:19;17.35;;;2.90;;
25717;SDS011;13574;52.040;5.692;2022-09-09T10:00:04;7.85;;;2.60;;
25717;SDS011;13574;52.040;5.692;2022-09-09T10:03:50;6.47;;;2.17;;
25717;SDS011;13574;52.040;5.692;2022-09-09T10:06:41;6.13;;;2.33;;
25717;SDS011;13574;52.040;5.692;2022-09-09T10:09:21;9.43;;;2.38;;
25717;SDS011;13574;52.040;5.692;2022-09-09T10:32:41;13.07;;;2.78;;
25717;SDS011;13574;52.040;5.692;2022-09-09T11:46:43;14.25;;;4.50;;
25717;SDS011;13574;52.040;5.692;2022-09-09T11:55:59;9.60;;;4.22;;
25717;SDS011;13574;52.040;5.692;2022-09-09T12:01:57;11.20;;;3.53;;
25717;SDS011;13574;52.040;5.692;2022-09-09T12:05:03;8.48;;;3.30;;
25717;SDS011;13574;52.040;5.692;2022-09-09T12:07:41;7.50;;;3.53;;
25717;SDS011;13574;52.040;5.692;2022-09-09T12:10:27;8.60;;;3.20;;
25717;SDS011;13574;52.040;5.692;2022-09-09T12:13:17;6.57;;;3.00;;
25717;SDS011;13574;52.040;5.692;2022-09-09T12:15:48;7.80;;;3.15;;
25717;SDS011;13574;52.040;5.692;2022-09-09T12:18:24;6.65;;;2.90;;
25717;SDS011;13574;52.040;5.692;2022-09-09T12:30:21;8.43;;;3.20;;
25717;SDS011;13574;52.040;5.692;2022-09-09T12:33:00;7.07;;;3.03;;
25717;SDS011;13574;52.040;5.692;2022-09-09T12:35:51;6.78;;;2.60;;
25717;SDS011;13574;52.040;5.692;2022-09-09T12:38:26;7.45;;;3.08;;
25717;SDS011;13574;52.040;5.692;2022-09-09T12:41:33;7.55;;;3.03;;
25717;SDS011;13574;52.040;5.692;2022-09-09T12:47:40;6.15;;;3.25;;
25717;SDS011;13574;52.040;5.692;2022-09-09T12:50:26;7.57;;;3.20;;
25717;SDS011;13574;52.040;5.692;2022-09-09T12:53:23;4.85;;;2.75;;
25717;SDS011;13574;52.040;5.692;2022-09-09T12:56:02;5.00;;;2.83;;
25717;SDS011;13574;52.040;5.692;2022-09-09T12:58:38;6.25;;;2.85;;
25717;SDS011;13574;52.040;5.692;2022-09-09T13:01:54;6.33;;;3.10;;
25717;SDS011;13574;52.040;5.692;2022-09-09T13:04:19;9.10;;;3.45;;
25717;SDS011;13574;52.040;5.692;2022-09-09T13:07:09;6.95;;;2.63;;
25717;SDS011;13574;52.040;5.692;2022-09-09T13:09:50;6.72;;;3.05;;
25717;SDS011;13574;52.040;5.692;2022-09-09T13:16:05;6.35;;;2.47;;
25717;SDS011;13574;52.040;5.692;2022-09-09T13:19:00;7.78;;;2.67;;
25717;SDS011;13574;52.040;5.692;2022-09-09T13:21:52;7.00;;;3.15;;
25717;SDS011;13574;52.040;5.692;2022-09-09T13:24:43;5.15;;;2.47;;
25717;SDS011;13574;52.040;5.692;2022-09-09T13:27:29;5.93;;;2.50;;
25717;SDS011;13574;52.040;5.692;2022-09-09T13:30:25;5.15;;;2.33;;
25717;SDS011;13574;52.040;5.692;2022-09-09T13:35:55;6.68;;;3.00;;
25717;SDS011;13574;52.040;5.692;2022-09-09T13:38:25;4.60;;;2.60;;
25717;SDS011;13574;52.040;5.692;2022-09-09T13:44:36;6.45;;;2.58;;
25717;SDS011;13574;52.040;5.692;2022-09-09T13:50:27;5.97;;;2.50;;
25717;SDS011;13574;52.040;5.692;2022-09-09T13:52:59;6.88;;;2.40;;
25717;SDS011;13574;52.040;5.692;2022-09-09T13:55:34;5.13;;;2.55;;
25717;SDS011;13574;52.040;5.692;2022-09-09T14:02:07;3.47;;;2.30;;
25717;SDS011;13574;52.040;5.692;2022-09-09T14:09:01;7.13;;;2.80;;
25717;SDS011;13574;52.040;5.692;2022-09-09T14:15:50;5.57;;;2.17;;
25717;SDS011;13574;52.040;5.692;2022-09-09T14:26:05;5.75;;;2.10;;
25717;SDS011;13574;52.040;5.692;2022-09-09T14:28:53;4.78;;;2.00;;
25717;SDS011;13574;52.040;5.692;2022-09-09T14:31:19;4.50;;;1.90;;
25717;SDS011;13574;52.040;5.692;2022-09-09T14:33:59;4.78;;;2.38;;
25717;SDS011;13574;52.040;5.692;2022-09-09T14:58:26;5.75;;;2.33;;
25717;SDS011;13574;52.040;5.692;2022-09-09T15:11:20;4.20;;;2.08;;
25717;SDS011;13574;52.040;5.692;2022-09-09T15:31:33;5.20;;;2.40;;
25717;SDS011;13574;52.040;5.692;2022-09-09T15:54:51;5.55;;;2.35;;
25717;SDS011;13574;52.040;5.692;2022-09-09T16:20:01;5.60;;;2.15;;
25717;SDS011;13574;52.040;5.692;2022-09-09T16:25:59;4.80;;;2.25;;
25717;SDS011;13574;52.040;5.692;2022-09-09T16:29:01;4.05;;;2.17;;
25717;SDS011;13574;52.040;5.692;2022-09-09T16:31:31;3.45;;;1.88;;
25717;SDS011;13574;52.040;5.692;2022-09-09T16:37:54;4.55;;;1.63;;
25717;SDS011;13574;52.040;5.692;2022-09-09T17:00:07;3.55;;;1.60;;
25717;SDS011;13574;52.040;5.692;2022-09-09T17:02:39;4.95;;;2.10;;
25717;SDS011;13574;52.040;5.692;2022-09-09T17:05:32;3.50;;;1.90;;
25717;SDS011;13574;52.040;5.692;2022-09-09T17:15:40;4.15;;;2.08;;
25717;SDS011;13574;52.040;5.692;2022-09-09T17:25:34;5.50;;;2.30;;
25717;SDS011;13574;52.040;5.692;2022-09-09T17:31:44;3.83;;;2.58;;
25717;SDS011;13574;52.040;5.692;2022-09-09T17:58:43;4.22;;;3.05;;
25717;SDS011;13574;52.040;5.692;2022-09-09T18:16:26;6.28;;;4.45;;
25717;SDS011;13574;52.040;5.692;2022-09-09T18:19:09;6.65;;;4.63;;
25717;SDS011;13574;52.040;5.692;2022-09-09T18:21:53;5.85;;;4.55;;
25717;SDS011;13574;52.040;5.692;2022-09-09T18:27:45;9.63;;;5.40;;
25717;SDS011;13574;52.040;5.692;2022-09-09T18:37:17;7.32;;;4.53;;
25717;SDS011;13574;52.040;5.692;2022-09-09T19:05:39;8.90;;;5.90;;
25717;SDS011;13574;52.040;5.692;2022-09-09T19:08:26;8.18;;;5.88;;
25717;SDS011;13574;52.040;5.692;2022-09-09T19:21:53;8.10;;;7.03;;
25717;SDS011;13574;52.040;5.692;2022-09-09T19:28:15;10.93;;;6.80;;
25717;SDS011;13574;52.040;5.692;2022-09-09T19:31:35;7.07;;;5.55;;
25717;SDS011;13574;52.040;5.692;2022-09-09T21:22:46;13.95;;;11.25;;
25717;SDS011;13574;52.040;5.692;2022-09-09T21:26:11;13.35;;;10.73;;
25717;SDS011;13574;52.040;5.692;2022-09-09T21:29:22;16.17;;;12.95;;
25717;SDS011;13574;52.040;5.692;2022-09-09T21:31:58;15.02;;;12.15;;
25717;SDS011;13574;52.040;5.692;2022-09-09T21:34:27;14.63;;;12.05;;
25717;SDS011;13574;52.040;5.692;2022-09-09T21:36:56;18.42;;;13.70;;
25717;SDS011;13574;52.040;5.692;2022-09-09T21:39:26;14.60;;;12.25;;
25717;SDS011;13574;52.040;5.692;2022-09-09T21:41:54;14.68;;;12.23;;
25717;SDS011;13574;52.040;5.692;2022-09-09T21:44:20;18.13;;;13.73;;
25717;SDS011;13574;52.040;5.692;2022-09-09T21:46:51;19.23;;;14.18;;
25717;SDS011;13574;52.040;5.692;2022-09-09T21:49:17;17.77;;;13.80;;
25717;SDS011;13574;52.040;5.692;2022-09-09T21:51:43;17.00;;;14.25;;
25717;SDS011;13574;52.040;5.692;2022-09-09T21:54:11;14.02;;;12.40;;
25717;SDS011;13574;52.040;5.692;2022-09-09T21:56:36;17.90;;;13.68;;
25717;SDS011;13574;52.040;5.692;2022-09-09T21:59:09;19.17;;;14.32;;
25717;SDS011;13574;52.040;5.692;2022-09-09T22:01:43;19.65;;;13.68;;
25717;SDS011;13574;52.040;5.692;2022-09-09T22:04:08;17.02;;;12.75;;
25717;SDS011;13574;52.040;5.692;2022-09-09T22:06:34;17.20;;;13.35;;
25717;SDS011;13574;52.040;5.692;2022-09-09T22:09:08;15.30;;;12.70;;
25717;SDS011;13574;52.040;5.692;2022-09-09T22:11:36;14.70;;;12.52;;
25717;SDS011;13574;52.040;5.692;2022-09-09T22:14:02;14.00;;;11.27;;
25717;SDS011;13574;52.040;5.692;2022-09-09T22:16:30;16.98;;;12.95;;
25717;SDS011;13574;52.040;5.692;2022-09-09T22:18:57;17.10;;;12.98;;
25717;SDS011;13574;52.040;5.692;2022-09-09T22:21:24;17.83;;;12.93;;
25717;SDS011;13574;52.040;5.692;2022-09-09T22:23:52;13.75;;;12.25;;
25717;SDS011;13574;52.040;5.692;2022-09-09T22:26:22;15.00;;;11.53;;
25717;SDS011;13574;52.040;5.692;2022-09-09T22:28:48;16.45;;;11.80;;
25717;SDS011;13574;52.040;5.692;2022-09-09T22:31:20;15.63;;;12.43;;
25717;SDS011;13574;52.040;5.692;2022-09-09T22:33:46;13.18;;;11.77;;
25717;SDS011;13574;52.040;5.692;2022-09-09T22:36:12;19.23;;;13.10;;
25717;SDS011;13574;52.040;5.692;2022-09-09T22:38:41;17.38;;;13.43;;
25717;SDS011;13574;52.040;5.692;2022-09-09T22:41:07;17.42;;;13.95;;
25717;SDS011;13574;52.040;5.692;2022-09-09T22:43:36;16.65;;;13.02;;
25717;SDS011;13574;52.040;5.692;2022-09-09T22:46:02;15.85;;;13.02;;
25717;SDS011;13574;52.040;5.692;2022-09-09T22:48:33;17.83;;;12.90;;
25717;SDS011;13574;52.040;5.692;2022-09-09T22:51:07;16.02;;;13.38;;
25717;SDS011;13574;52.040;5.692;2022-09-09T22:53:36;12.30;;;10.95;;
25717;SDS011;13574;52.040;5.692;2022-09-09T22:56:04;15.55;;;12.00;;
25717;SDS011;13574;52.040;5.692;2022-09-09T22:58:36;18.23;;;12.98;;
25717;SDS011;13574;52.040;5.692;2022-09-09T23:01:09;15.23;;;12.68;;
25717;SDS011;13574;52.040;5.692;2022-09-09T23:03:44;17.75;;;12.73;;
25717;SDS011;13574;52.040;5.692;2022-09-09T23:06:15;14.63;;;11.65;;
25717;SDS011;13574;52.040;5.692;2022-09-09T23:08:46;15.57;;;12.07;;
25717;SDS011;13574;52.040;5.692;2022-09-09T23:11:17;17.25;;;12.10;;
25717;SDS011;13574;52.040;5.692;2022-09-09T23:13:48;18.88;;;11.85;;
25717;SDS011;13574;52.040;5.692;2022-09-09T23:16:24;14.05;;;10.77;;
25717;SDS011;13574;52.040;5.692;2022-09-09T23:18:52;15.73;;;10.40;;
25717;SDS011;13574;52.040;5.692;2022-09-09T23:21:24;19.60;;;10.80;;
25717;SDS011;13574;52.040;5.692;2022-09-09T23:23:57;12.35;;;9.70;;
25717;SDS011;13574;52.040;5.692;2022-09-09T23:26:32;11.60;;;9.07;;
25717;SDS011;13574;52.040;5.692;2022-09-09T23:29:04;13.85;;;9.50;;
25717;SDS011;13574;52.040;5.692;2022-09-09T23:31:35;13.60;;;9.98;;
25717;SDS011;13574;52.040;5.692;2022-09-09T23:34:02;11.40;;;8.77;;
25717;SDS011;13574;52.040;5.692;2022-09-09T23:36:28;13.10;;;8.77;;
25717;SDS011;13574;52.040;5.692;2022-09-09T23:38:59;10.57;;;7.95;;
25717;SDS011;13574;52.040;5.692;2022-09-09T23:41:28;11.73;;;7.53;;
25717;SDS011;13574;52.040;5.692;2022-09-09T23:43:54;10.60;;;7.15;;
25717;SDS011;13574;52.040;5.692;2022-09-09T23:46:24;10.50;;;7.10;;
25717;SDS011;13574;52.040;5.692;2022-09-09T23:48:56;13.57;;;7.38;;
25717;SDS011;13574;52.040;5.692;2022-09-09T23:51:29;9.43;;;6.88;;
25717;SDS011;13574;52.040;5.692;2022-09-09T23:53:57;9.77;;;6.30;;
25717;SDS011;13574;52.040;5.692;2022-09-09T23:56:28;12.43;;;6.72;;
25717;SDS011;13574;52.040;5.692;2022-09-09T23:58:56;11.50;;;6.57;;
